Time;durP1;ratioP1;P1;durP2;ratioP2;P2;SDS_P1;SDS_P2;PMS_P1;PMS_P2;Temp;Humidity;BMP_temperature;BMP_pressure;BME280_temperature;BME280_humidity;BME280_pressure;Samples;Min_cycle;Max_cycle;Signal;HPM_P1;HPM_P2
2021/11/28 00:01:15;;;;;;;8.33;7.42;;;;;;;13.36;54.09;98519.31;1797245;78;21045;-61
2021/11/28 00:03:41;;;;;;;8.75;7.85;;;;;;;13.35;54.08;98520.36;1805492;77;21018;-61
2021/11/28 00:06:20;;;;;;;8.55;7.62;;;;;;;13.35;54.07;98520.36;1785616;78;21077;-61
2021/11/28 00:12:07;;;;;;;8.58;7.72;;;;;;;13.33;54.07;98517.91;1806541;77;20994;-61
2021/11/28 00:13:50;;;;;;;9.48;8.40;;;;;;;13.33;54.08;98524.57;1779982;79;21554;-62
2021/11/28 00:16:15;;;;;;;8.95;8.10;;;;;;;13.33;54.06;98522.42;1808795;79;22147;-62
2021/11/28 00:18:42;;;;;;;9.48;8.50;;;;;;;13.31;54.07;98515.97;1804045;79;21017;-61
2021/11/28 00:21:11;;;;;;;9.15;8.25;;;;;;;13.30;54.08;98517.52;1802850;79;21042;-61
2021/11/28 00:23:39;;;;;;;10.03;7.87;;;;;;;13.29;54.06;98518.00;1789085;78;21109;-60
2021/11/28 00:26:05;;;;;;;9.70;7.80;;;;;;;13.29;54.06;98522.01;1803046;78;21006;-61
2021/11/28 00:28:32;;;;;;;8.10;7.25;;;;;;;13.28;54.07;98524.88;1812548;78;21756;-62
2021/11/28 00:31:00;;;;;;;8.50;7.60;;;;;;;13.27;54.06;98534.73;1790112;78;21084;-61
2021/11/28 00:33:26;;;;;;;10.40;8.43;;;;;;;13.26;54.07;98529.09;1790113;78;21022;-61
2021/11/28 00:35:53;;;;;;;8.58;7.67;;;;;;;13.26;54.06;98531.76;1811909;79;21487;-61
2021/11/28 00:38:22;;;;;;;9.23;8.05;;;;;;;13.25;54.05;98537.30;1745780;80;21037;-61
2021/11/28 00:40:48;;;;;;;9.55;8.55;;;;;;;13.24;54.07;98543.68;1735933;79;21139;-62
2021/11/28 00:43:18;;;;;;;9.03;7.92;;;;;;;13.24;54.07;98543.68;1744774;80;21019;-61
2021/11/28 00:45:46;;;;;;;9.58;8.58;;;;;;;13.23;54.04;98537.54;1739425;79;21530;-61
2021/11/28 00:48:14;;;;;;;9.55;8.53;;;;;;;13.22;54.05;98538.56;1736986;81;21052;-62
2021/11/28 00:53:10;;;;;;;10.98;8.85;;;;;;;13.21;54.05;98542.77;1732887;79;21140;-62
2021/11/28 00:55:36;;;;;;;9.75;8.60;;;;;;;13.20;54.04;98537.14;1744765;80;21513;-60
2021/11/28 00:58:03;;;;;;;9.83;8.83;;;;;;;13.18;54.04;98531.50;1741608;79;21071;-60
2021/11/28 01:00:31;;;;;;;10.58;8.80;;;;;;;13.18;54.04;98534.16;1762752;79;21025;-60
2021/11/28 01:02:57;;;;;;;9.05;8.15;;;;;;;13.18;54.02;98523.50;1749032;79;21270;-61
2021/11/28 01:05:24;;;;;;;10.85;8.70;;;;;;;13.18;54.02;98528.83;1744481;79;21882;-61
2021/11/28 01:07:51;;;;;;;9.15;8.25;;;;;;;13.17;54.04;98536.55;1737574;79;21510;-60
2021/11/28 01:10:17;;;;;;;11.50;9.05;;;;;;;13.16;54.01;98532.23;1750148;80;21475;-60
2021/11/28 01:12:45;;;;;;;9.63;8.58;;;;;;;13.15;54.02;98537.28;1754705;79;21105;-60
2021/11/28 01:15:11;;;;;;;9.88;8.88;;;;;;;13.15;54.02;98537.77;1723204;80;21046;-61
2021/11/28 01:17:38;;;;;;;9.60;8.48;;;;;;;13.14;54.00;98536.96;1756428;79;21141;-60
2021/11/28 01:20:08;;;;;;;10.13;8.55;;;;;;;13.14;54.00;98539.63;1747149;79;21003;-61
2021/11/28 01:22:35;;;;;;;9.78;8.48;;;;;;;13.13;53.99;98539.84;1753872;79;21054;-61
2021/11/28 01:25:03;;;;;;;10.00;7.83;;;;;;;13.12;54.00;98541.69;1741173;79;21690;-60
2021/11/28 01:27:29;;;;;;;11.48;8.95;;;;;;;13.12;54.00;98532.36;1735392;79;21057;-60
2021/11/28 01:29:56;;;;;;;9.90;8.58;;;;;;;13.12;54.00;98535.55;1754499;79;21141;-61
2021/11/28 01:32:22;;;;;;;9.50;8.55;;;;;;;13.11;53.99;98541.38;1751618;79;21065;-62
2021/11/28 01:34:50;;;;;;;10.20;8.15;;;;;;;13.10;53.99;98534.42;1739631;81;21047;-61
2021/11/28 01:37:17;;;;;;;10.65;8.70;;;;;;;13.11;53.98;98534.71;1759628;79;21001;-61
2021/11/28 01:39:47;;;;;;;9.88;8.50;;;;;;;13.10;53.97;98527.76;1755347;79;21062;-61
2021/11/28 01:42:13;;;;;;;8.53;7.62;;;;;;;13.10;53.98;98529.61;1795516;78;22382;-62
2021/11/28 01:44:40;;;;;;;9.75;8.10;;;;;;;13.08;53.98;98527.16;1812482;79;21514;-60
2021/11/28 01:47:07;;;;;;;10.88;8.30;;;;;;;13.08;53.97;98524.49;1789848;79;21533;-61
2021/11/28 01:49:34;;;;;;;9.95;8.93;;;;;;;13.07;53.97;98530.84;1774823;79;21041;-61
2021/11/28 01:52:03;;;;;;;9.85;8.85;;;;;;;13.07;53.98;98538.84;1809920;78;21138;-60
2021/11/28 01:54:31;;;;;;;10.18;8.30;;;;;;;13.08;53.97;98539.67;1794351;78;21050;-61
2021/11/28 01:56:58;;;;;;;9.30;8.05;;;;;;;13.07;53.96;98548.69;1806242;78;21084;-61
2021/11/28 01:59:25;;;;;;;9.53;8.45;;;;;;;13.07;53.98;98551.36;1806206;79;20958;-62
2021/11/28 02:01:52;;;;;;;11.08;9.23;;;;;;;13.06;53.96;98548.41;1816085;78;21017;-61
2021/11/28 02:04:19;;;;;;;10.00;8.13;;;;;;;13.05;53.95;98536.91;1801039;79;21021;-61
2021/11/28 02:06:46;;;;;;;9.73;8.55;;;;;;;13.04;53.94;98536.62;1793362;77;23224;-61
2021/11/28 02:09:13;;;;;;;9.68;8.40;;;;;;;13.05;53.93;98551.56;1808721;78;21018;-61
2021/11/28 02:11:43;;;;;;;9.45;8.45;;;;;;;13.04;53.94;98553.11;1796263;79;20987;-60
2021/11/28 02:14:11;;;;;;;9.13;8.13;;;;;;;13.04;53.93;98541.11;1798328;78;21045;-60
2021/11/28 02:16:41;;;;;;;9.80;8.60;;;;;;;13.03;53.93;98536.30;1797085;77;20971;-61
2021/11/28 02:19:09;;;;;;;10.40;8.88;;;;;;;13.02;53.91;98526.69;1801574;78;21125;-61
2021/11/28 02:21:36;;;;;;;8.98;7.65;;;;;;;13.02;53.91;98517.84;1814513;78;20973;-61
2021/11/28 02:24:05;;;;;;;9.75;8.73;;;;;;;13.01;53.91;98512.23;1810174;78;20984;-60
2021/11/28 02:26:31;;;;;;;10.23;8.78;;;;;;;13.00;53.92;98508.75;1802514;77;21006;-60
2021/11/28 02:28:58;;;;;;;10.50;9.28;;;;;;;13.00;53.91;98507.42;1806012;78;21591;-61
2021/11/28 02:31:25;;;;;;;10.80;8.73;;;;;;;12.99;53.91;98507.91;1816738;78;21443;-62
2021/11/28 02:33:52;;;;;;;9.40;8.45;;;;;;;12.99;53.91;98499.11;1812635;78;21077;-61
2021/11/28 02:36:19;;;;;;;9.88;8.53;;;;;;;12.98;53.90;98493.49;1820699;78;21505;-61
2021/11/28 02:38:46;;;;;;;9.30;8.25;;;;;;;12.97;53.88;98491.84;1812971;78;21540;-61
2021/11/28 02:41:13;;;;;;;9.45;8.40;;;;;;;12.98;53.92;98484.16;1806597;78;21473;-61
2021/11/28 02:43:40;;;;;;;9.80;8.45;;;;;;;12.97;53.91;98481.18;1816772;78;21104;-61
2021/11/28 02:46:08;;;;;;;10.20;8.88;;;;;;;12.96;53.88;98480.37;1800278;78;21045;-60
2021/11/28 02:48:35;;;;;;;10.93;9.18;;;;;;;12.96;53.91;98483.53;1800981;78;21534;-61
2021/11/28 02:51:02;;;;;;;9.65;8.65;;;;;;;12.96;53.90;98485.70;1813241;78;21014;-61
2021/11/28 02:53:29;;;;;;;10.68;8.73;;;;;;;12.96;53.89;98490.19;1810521;78;21131;-62
2021/11/28 02:56:00;;;;;;;9.93;8.40;;;;;;;12.96;53.88;98490.19;1795546;78;21134;-61
2021/11/28 02:58:26;;;;;;;9.35;8.28;;;;;;;12.95;53.87;98493.91;1816780;78;21099;-60
2021/11/28 03:00:58;;;;;;;10.30;8.50;;;;;;;12.95;53.88;98491.23;1760360;80;21036;-62
2021/11/28 03:03:25;;;;;;;9.28;8.10;;;;;;;12.94;53.89;98498.92;1756954;81;21508;-61
2021/11/28 03:05:53;;;;;;;9.00;7.90;;;;;;;12.93;53.89;98506.11;1768486;81;21097;-62
2021/11/28 03:08:20;;;;;;;9.78;8.50;;;;;;;12.93;53.89;98505.30;1756957;80;21198;-61
2021/11/28 03:10:53;;;;;;;9.45;8.40;;;;;;;12.92;53.89;98503.65;1764190;80;20986;-61
2021/11/28 03:13:26;;;;;;;10.08;9.00;;;;;;;12.92;53.89;98509.82;1765373;80;21105;-61
2021/11/28 03:15:55;;;;;;;;;;;;;;;12.92;53.89;98516.98;1762743;80;21061;-61
2021/11/28 03:18:24;;;;;;;10.03;9.00;;;;;;;12.90;53.92;98531.88;1768443;80;20150;-62
2021/11/28 03:20:53;;;;;;;10.60;8.58;;;;;;;12.88;53.97;98530.43;1765697;80;21168;-61
2021/11/28 03:23:24;;;;;;;10.88;8.30;;;;;;;12.87;53.98;98515.48;1760427;80;21054;-60
2021/11/28 03:25:50;;;;;;;10.25;9.15;;;;;;;12.88;53.98;98510.44;1772727;80;21065;-61
2021/11/28 03:28:19;;;;;;;9.95;8.88;;;;;;;12.88;53.97;98517.11;1770638;80;21013;-61
2021/11/28 03:30:47;;;;;;;10.10;8.50;;;;;;;12.87;53.97;98522.15;1774219;80;21025;-61
2021/11/28 03:33:32;;;;;;;9.58;8.58;;;;;;;12.87;53.94;98522.15;1754138;80;21195;-60
2021/11/28 03:36:08;;;;;;;11.25;8.95;;;;;;;12.88;53.96;98521.10;1752669;79;21096;-60
2021/11/28 03:38:36;;;;;;;10.82;9.25;;;;;;;12.86;53.94;98521.31;1757546;79;21515;-61
2021/11/28 03:41:02;;;;;;;11.10;9.18;;;;;;;12.86;53.94;98517.84;1749190;80;21081;-61
2021/11/28 03:43:31;;;;;;;9.28;8.38;;;;;;;12.86;53.95;98528.49;1777934;80;21041;-61
2021/11/28 03:45:58;;;;;;;11.73;8.95;;;;;;;12.85;53.96;98533.54;1751939;80;21523;-62
2021/11/28 03:48:24;;;;;;;10.10;9.00;;;;;;;12.84;53.97;98540.70;1775804;80;21123;-61
2021/11/28 03:50:51;;;;;;;10.35;9.00;;;;;;;12.85;53.96;98541.53;1755713;80;21047;-62
2021/11/28 03:53:19;;;;;;;11.33;9.10;;;;;;;12.87;53.94;98549.61;1766265;80;21519;-61
2021/11/28 03:55:48;;;;;;;10.65;9.48;;;;;;;12.85;53.94;98546.87;1769926;80;20992;-60
2021/11/28 03:58:15;;;;;;;9.98;8.85;;;;;;;12.86;53.94;98548.48;1757918;80;21129;-61
2021/11/28 04:00:41;;;;;;;10.53;9.20;;;;;;;12.85;53.95;98544.20;1769159;80;21089;-61
2021/11/28 04:03:09;;;;;;;11.90;10.05;;;;;;;12.86;53.93;98547.16;1753219;80;21052;-61
2021/11/28 04:05:39;;;;;;;11.25;10.03;;;;;;;12.85;53.93;98538.88;1770464;80;21374;-61
2021/11/28 04:08:06;;;;;;;9.95;8.95;;;;;;;12.84;53.92;98531.36;1745031;80;22007;-61
2021/11/28 04:10:34;;;;;;;11.00;9.90;;;;;;;12.84;53.91;98525.22;1756930;80;21141;-60
2021/11/28 04:13:00;;;;;;;10.93;8.95;;;;;;;12.83;53.91;98520.94;1756350;80;21073;-62
2021/11/28 04:15:27;;;;;;;10.15;8.90;;;;;;;12.83;53.91;98519.09;1749177;80;20998;-61
2021/11/28 04:17:57;;;;;;;10.60;9.05;;;;;;;12.84;53.90;98510.56;1767509;80;21988;-61
2021/11/28 04:20:24;;;;;;;10.95;9.43;;;;;;;12.83;53.91;98516.42;1747365;81;21049;-61
2021/11/28 04:22:51;;;;;;;12.03;9.55;;;;;;;12.83;53.90;98520.94;1787396;78;21133;-61
2021/11/28 04:25:17;;;;;;;9.70;8.70;;;;;;;12.83;53.88;98516.94;1806749;78;21041;-61
2021/11/28 04:27:44;;;;;;;10.60;9.40;;;;;;;12.83;53.88;98519.09;1817346;77;21532;-60
2021/11/28 04:30:12;;;;;;;10.28;9.18;;;;;;;12.83;53.87;98513.75;1822964;78;21460;-60
2021/11/28 04:32:39;;;;;;;11.33;9.10;;;;;;;12.83;53.86;98507.62;1816729;78;21025;-60
2021/11/28 04:35:07;;;;;;;10.53;9.30;;;;;;;12.83;53.83;98505.76;1825426;77;21079;-61
2021/11/28 04:37:35;;;;;;;9.88;8.85;;;;;;;12.82;53.86;98497.45;1801407;78;21023;-61
2021/11/28 04:40:02;;;;;;;10.48;9.38;;;;;;;12.83;53.83;98512.95;1820975;78;21077;-61
2021/11/28 04:42:29;;;;;;;12.25;9.53;;;;;;;12.82;53.85;98509.97;1827971;77;20996;-60
2021/11/28 04:44:56;;;;;;;9.98;8.98;;;;;;;12.82;53.86;98521.44;1805472;78;21032;-60
2021/11/28 04:47:22;;;;;;;12.43;9.53;;;;;;;12.82;53.83;98527.29;1808673;78;23272;-62
2021/11/28 04:49:54;;;;;;;11.22;9.50;;;;;;;12.82;53.83;98529.95;1808213;78;21037;-62
2021/11/28 04:52:20;;;;;;;10.25;9.15;;;;;;;12.82;53.83;98529.95;1817507;77;21034;-60
2021/11/28 04:54:47;;;;;;;12.75;10.43;;;;;;;12.82;53.84;98529.95;1828053;77;20982;-61
2021/11/28 04:57:15;;;;;;;10.90;9.35;;;;;;;12.80;53.83;98540.82;1818747;78;20990;-61
2021/11/28 04:59:42;;;;;;;10.00;8.93;;;;;;;12.81;53.82;98546.47;1827649;78;21133;-61
2021/11/28 05:02:09;;;;;;;10.63;8.78;;;;;;;12.82;53.82;98543.28;1823475;77;21046;-61
2021/11/28 05:04:36;;;;;;;10.10;8.80;;;;;;;12.81;53.82;98537.14;1817242;78;21068;-60
2021/11/28 05:07:21;;;;;;;9.70;8.70;;;;;;;12.82;53.79;98545.42;1819281;77;21054;-60
2021/11/28 05:09:49;;;;;;;9.50;8.50;;;;;;;12.82;53.78;98540.61;1821033;78;21488;-60
2021/11/28 05:12:16;;;;;;;10.65;9.48;;;;;;;12.81;53.78;98542.99;1824510;78;21162;-60
2021/11/28 05:14:43;;;;;;;10.72;9.25;;;;;;;12.81;53.79;98546.99;1807672;77;20984;-60
2021/11/28 05:17:11;;;;;;;10.05;8.65;;;;;;;12.79;53.81;98550.67;1820337;78;20966;-61
2021/11/28 05:19:40;;;;;;;10.00;9.00;;;;;;;12.79;53.79;98542.67;1802999;78;21033;-60
2021/11/28 05:22:19;;;;;;;9.90;8.80;;;;;;;12.79;53.79;98540.53;1765001;79;21504;-60
2021/11/28 05:24:47;;;;;;;10.43;9.08;;;;;;;12.78;53.80;98544.21;1776288;78;21647;-60
2021/11/28 05:27:15;;;;;;;9.20;8.10;;;;;;;12.78;53.79;98545.55;1776050;79;21065;-60
2021/11/28 05:29:41;;;;;;;9.63;8.63;;;;;;;12.78;53.78;98541.55;1738919;81;20999;-61
2021/11/28 05:32:08;;;;;;;10.00;9.03;;;;;;;12.78;53.76;98539.69;1743898;80;21549;-61
2021/11/28 05:34:45;;;;;;;10.08;8.80;;;;;;;12.78;53.78;98538.88;1724176;82;21652;-61
2021/11/28 05:37:18;;;;;;;9.93;8.93;;;;;;;12.78;53.77;98538.36;1782053;79;21079;-61
2021/11/28 05:42:52;;;;;;;10.28;9.20;;;;;;;12.82;53.77;98531.28;1779975;79;28057;-60
2021/11/28 05:45:20;;;;;;;10.00;8.93;;;;;;;12.77;53.71;98532.74;1749187;80;21053;-61
2021/11/28 05:47:48;;;;;;;11.10;9.38;;;;;;;12.78;53.71;98529.03;1747517;81;21120;-60
2021/11/28 05:50:33;;;;;;;9.70;8.40;;;;;;;12.79;53.70;98537.34;1740483;80;21011;-61
2021/11/28 05:53:00;;;;;;;10.55;8.98;;;;;;;12.77;53.69;98540.73;1721558;81;21052;-59
2021/11/28 05:55:26;;;;;;;10.65;9.13;;;;;;;12.78;53.69;98546.88;1730192;81;21022;-60
2021/11/28 05:57:55;;;;;;;9.40;8.33;;;;;;;12.78;53.68;98543.69;1741071;81;21533;-60
2021/11/28 06:00:22;;;;;;;9.60;8.60;;;;;;;12.78;53.66;98543.69;1731509;80;22242;-61
2021/11/28 06:02:53;;;;;;;9.58;8.55;;;;;;;12.78;53.68;98545.02;1758741;80;21036;-60
2021/11/28 06:05:41;;;;;;;10.43;8.80;;;;;;;12.78;53.65;98543.69;1723864;81;21045;-60
2021/11/28 06:08:21;;;;;;;10.20;9.15;;;;;;;12.78;53.65;98548.20;1686545;81;21455;-61
2021/11/28 06:10:49;;;;;;;9.70;8.70;;;;;;;12.78;53.66;98555.68;1745329;80;21005;-60
2021/11/28 06:13:15;;;;;;;9.83;8.83;;;;;;;12.77;53.67;98549.25;1739663;81;21220;-60
2021/11/28 06:15:44;;;;;;;10.98;9.60;;;;;;;12.77;53.66;98548.73;1722907;81;21024;-60
2021/11/28 06:18:32;;;;;;;8.90;7.97;;;;;;;12.77;53.65;98548.73;1634671;86;21097;-61
2021/11/28 06:21:15;;;;;;;10.18;9.15;;;;;;;12.77;53.66;98553.25;1597625;88;21056;-60
2021/11/28 06:23:43;;;;;;;10.23;8.65;;;;;;;12.77;53.66;98551.92;1651522;81;22306;-61
2021/11/28 06:26:10;;;;;;;10.05;8.68;;;;;;;12.78;53.66;98557.54;1696296;81;21071;-61
2021/11/28 06:28:37;;;;;;;9.28;8.35;;;;;;;12.77;53.67;98542.06;1709667;81;21035;-61
2021/11/28 06:31:04;;;;;;;10.38;8.85;;;;;;;12.77;53.69;98547.40;1693198;83;21048;-60
2021/11/28 06:33:34;;;;;;;9.70;8.70;;;;;;;12.77;53.70;98546.06;1713766;81;21021;-60
2021/11/28 06:36:03;;;;;;;9.93;8.93;;;;;;;12.77;53.68;98545.26;1670771;81;21091;-61
2021/11/28 06:38:47;;;;;;;10.75;8.98;;;;;;;12.78;53.67;98544.21;1703440;81;21121;-60
2021/11/28 06:41:33;;;;;;;10.03;8.95;;;;;;;12.78;53.69;98549.02;1714330;81;21519;-61
2021/11/28 06:43:59;;;;;;;10.38;9.28;;;;;;;12.76;53.70;98548.94;1703832;82;21584;-59
2021/11/28 06:46:26;;;;;;;10.13;9.08;;;;;;;12.75;53.72;98554.79;1708013;82;21591;-60
2021/11/28 06:48:52;;;;;;;9.63;8.58;;;;;;;12.76;53.73;98550.27;1709175;82;21532;-59
2021/11/28 06:51:27;;;;;;;8.85;7.92;;;;;;;12.76;53.72;98545.75;1680384;82;21136;-60
2021/11/28 06:53:54;;;;;;;9.88;8.88;;;;;;;12.76;53.75;98548.41;1718638;82;21656;-61
2021/11/28 06:56:29;;;;;;;9.43;8.40;;;;;;;12.76;53.74;98560.41;1707905;82;21627;-60
2021/11/28 06:58:58;;;;;;;10.40;8.80;;;;;;;12.76;53.74;98556.41;1708522;82;21045;-60
2021/11/28 07:01:25;;;;;;;10.13;9.00;;;;;;;12.76;53.75;98559.08;1704367;82;21076;-60
2021/11/28 07:04:11;;;;;;;10.70;8.75;;;;;;;12.77;53.75;98561.25;1710414;82;21281;-60
2021/11/28 07:06:42;;;;;;;10.15;9.05;;;;;;;12.76;53.78;98564.41;1693160;82;21053;-60
2021/11/28 07:09:11;;;;;;;10.08;9.05;;;;;;;12.76;53.78;98560.41;1706646;82;21025;-60
2021/11/28 07:11:38;;;;;;;10.20;9.18;;;;;;;12.76;53.79;98551.08;1702099;82;21135;-62
2021/11/28 07:14:04;;;;;;;10.68;9.58;;;;;;;12.75;53.80;98548.65;1709716;82;21024;-60
2021/11/28 07:16:31;;;;;;;11.55;9.55;;;;;;;12.76;53.79;98551.08;1708295;82;21150;-60
2021/11/28 07:18:58;;;;;;;10.08;8.98;;;;;;;12.77;53.80;98551.40;1703346;82;21068;-61
2021/11/28 07:21:26;;;;;;;9.88;8.63;;;;;;;12.77;53.80;98551.40;1699334;82;21093;-61
2021/11/28 07:23:54;;;;;;;9.75;8.73;;;;;;;12.77;53.80;98548.73;1699645;82;21084;-61
2021/11/28 07:26:21;;;;;;;9.40;8.45;;;;;;;12.78;53.78;98554.88;1709393;82;21103;-60
2021/11/28 07:28:49;;;;;;;8.90;8.00;;;;;;;12.78;53.78;98558.87;1712377;82;21158;-60
2021/11/28 07:31:18;;;;;;;10.05;8.68;;;;;;;12.77;53.78;98552.73;1703322;82;21017;-59
2021/11/28 07:34:03;;;;;;;10.55;9.45;;;;;;;12.78;53.79;98553.02;1713387;82;21539;-61
2021/11/28 07:36:49;;;;;;;9.60;8.68;;;;;;;12.77;53.79;98554.06;1718330;82;21009;-60
2021/11/28 07:39:15;;;;;;;10.05;9.03;;;;;;;12.77;53.81;98554.06;1705439;82;21081;-59
2021/11/28 07:41:43;;;;;;;9.85;8.95;;;;;;;12.77;53.82;98554.59;1707679;82;21071;-60
2021/11/28 07:44:17;;;;;;;10.32;8.63;;;;;;;12.77;53.80;98559.91;1712195;81;21018;-61
2021/11/28 07:46:55;;;;;;;9.90;8.40;;;;;;;12.77;53.84;98562.06;1734191;81;21023;-60
2021/11/28 07:49:23;;;;;;;9.40;8.38;;;;;;;12.78;53.84;98573.00;1689693;82;21068;-60
2021/11/28 07:51:50;;;;;;;10.38;8.38;;;;;;;12.78;53.84;98569.01;1723819;82;21042;-60
2021/11/28 07:54:17;;;;;;;10.45;9.00;;;;;;;12.78;53.85;98567.67;1739348;81;21121;-61
2021/11/28 07:56:44;;;;;;;10.15;9.15;;;;;;;12.78;53.83;98569.01;1735723;81;21101;-61
2021/11/28 07:59:29;;;;;;;;;;;;;;;12.79;53.85;98562.66;1692311;83;21995;-61
2021/11/28 08:01:58;;;;;;;9.13;8.13;;;;;;;12.81;53.84;98560.31;1726241;80;20196;-61
2021/11/28 08:04:39;;;;;;;10.32;9.23;;;;;;;12.76;53.92;98553.74;1728173;81;21057;-61
2021/11/28 08:07:24;;;;;;;9.88;8.78;;;;;;;12.76;53.93;98548.41;1734166;80;21137;-62
2021/11/28 08:09:56;;;;;;;10.18;9.10;;;;;;;12.77;53.92;98550.06;1733804;82;21026;-60
2021/11/28 08:12:24;;;;;;;10.40;8.40;;;;;;;12.78;53.94;98551.69;1742025;81;21551;-61
2021/11/28 08:14:52;;;;;;;10.40;8.83;;;;;;;12.79;53.97;98544.53;1743283;81;21026;-60
2021/11/28 08:17:19;;;;;;;9.18;8.18;;;;;;;12.81;53.97;98544.33;1725482;81;21062;-61
2021/11/28 08:19:46;;;;;;;9.15;8.25;;;;;;;12.81;53.97;98541.14;1740662;82;21100;-61
2021/11/28 08:22:12;;;;;;;15.30;8.98;;;;;;;12.84;53.95;98555.35;1742647;81;21105;-61
2021/11/28 08:24:39;;;;;;;9.48;8.48;;;;;;;12.84;53.96;98559.35;1731409;81;21011;-61
2021/11/28 08:27:07;;;;;;;9.60;8.60;;;;;;;12.87;53.93;98565.61;1736506;81;21096;-60
2021/11/28 08:29:35;;;;;;;9.53;8.53;;;;;;;12.88;53.96;98561.89;1731629;81;21468;-60
2021/11/28 08:32:05;;;;;;;10.32;9.25;;;;;;;12.90;53.95;98570.52;1685050;82;21227;-60
2021/11/28 08:34:49;;;;;;;9.88;8.30;;;;;;;12.90;53.95;98558.53;1694576;82;21069;-61
2021/11/28 08:37:25;;;;;;;8.95;8.05;;;;;;;12.92;53.90;98556.47;1678888;82;21087;-62
2021/11/28 08:39:52;;;;;;;10.50;8.68;;;;;;;12.94;53.93;98551.73;1737385;81;21598;-60
2021/11/28 08:42:19;;;;;;;9.73;8.63;;;;;;;12.97;53.88;98555.82;1733218;81;21528;-61
2021/11/28 08:44:45;;;;;;;11.38;8.45;;;;;;;13.01;53.93;98556.22;1750838;81;21066;-60
2021/11/28 08:47:12;;;;;;;9.28;8.25;;;;;;;13.02;54.02;98550.67;1750336;81;21006;-60
2021/11/28 08:49:39;;;;;;;9.95;8.45;;;;;;;13.05;54.01;98542.23;1756389;81;21050;-60
2021/11/28 08:52:07;;;;;;;9.38;8.33;;;;;;;13.08;53.99;98544.48;1760560;80;21530;-60
2021/11/28 08:54:36;;;;;;;9.68;8.70;;;;;;;13.10;53.98;98537.09;1740861;80;21037;-60
2021/11/28 08:57:04;;;;;;;9.15;8.25;;;;;;;13.13;53.93;98538.01;1750028;81;23366;-60
2021/11/28 08:59:32;;;;;;;11.18;9.30;;;;;;;13.15;53.88;98538.61;1742713;81;21127;-60
2021/11/28 09:01:58;;;;;;;9.68;8.63;;;;;;;13.17;53.85;98535.70;1766280;80;21536;-60
2021/11/28 09:04:25;;;;;;;9.83;8.58;;;;;;;13.20;53.82;98530.48;1745911;81;21033;-62
2021/11/28 09:06:52;;;;;;;10.18;9.08;;;;;;;13.22;53.76;98537.75;1747069;81;21053;-61
2021/11/28 09:09:18;;;;;;;9.80;8.90;;;;;;;13.25;53.73;98537.30;1734296;80;21135;-60
2021/11/28 09:11:45;;;;;;;9.03;7.83;;;;;;;13.27;53.67;98533.41;1730429;81;21576;-60
2021/11/28 09:14:12;;;;;;;9.20;8.28;;;;;;;13.30;53.65;98538.84;1735614;81;21032;-60
2021/11/28 09:16:38;;;;;;;10.38;8.95;;;;;;;13.32;53.61;98532.78;1737465;81;21091;-60
2021/11/28 09:19:14;;;;;;;10.23;9.08;;;;;;;13.35;53.55;98535.03;1732344;81;21034;-61
2021/11/28 09:21:33;;;;;;;9.60;8.60;;;;;;;13.38;53.52;98535.91;1742913;81;21768;-59
2021/11/28 09:26:44;;;;;;;9.38;8.43;;;;;;;13.42;53.43;98536.30;1734449;81;21059;-60
2021/11/28 09:29:11;;;;;;;9.78;8.78;;;;;;;13.45;53.38;98537.22;1747108;80;21021;-59
2021/11/28 09:31:37;;;;;;;10.10;9.08;;;;;;;13.46;53.37;98536.17;1735189;79;21060;-61
2021/11/28 09:34:04;;;;;;;15.48;8.53;;;;;;;13.48;53.32;98526.09;1696493;82;21092;-62
2021/11/28 09:36:32;;;;;;;13.00;8.18;;;;;;;13.54;62.92;98521.22;1713642;82;21120;-61
2021/11/28 09:39:00;;;;;;;13.13;7.62;;;;;;;13.68;63.07;98518.77;1705312;82;21089;-61
2021/11/28 09:41:34;;;;;;;14.18;8.80;;;;;;;13.81;61.42;98512.51;1694308;82;21045;-62
2021/11/28 09:44:06;;;;;;;14.30;8.18;;;;;;;13.87;61.50;98510.30;1696899;82;21058;-61
2021/11/28 09:46:33;;;;;;;15.45;8.28;;;;;;;13.92;61.93;98519.77;1686800;82;21085;-62
2021/11/28 09:49:01;;;;;;;11.83;8.03;;;;;;;13.95;62.16;98518.02;1724001;81;21045;-63
2021/11/28 09:51:29;;;;;;;13.48;8.28;;;;;;;13.97;62.30;98511.12;1699905;83;21202;-62
2021/11/28 09:53:57;;;;;;;14.28;8.98;;;;;;;14.00;62.21;98512.53;1732755;82;21006;-63
2021/11/28 09:56:25;;;;;;;11.90;8.35;;;;;;;14.01;62.04;98504.83;1732490;80;21069;-64
2021/11/28 09:58:52;;;;;;;12.37;8.53;;;;;;;14.03;61.81;98502.75;1739097;80;22033;-63
2021/11/28 10:01:18;;;;;;;12.23;8.38;;;;;;;14.06;61.50;98503.62;1744848;80;21491;-62
2021/11/28 10:03:45;;;;;;;11.80;8.45;;;;;;;14.07;61.21;98503.41;1736566;81;21505;-61
2021/11/28 10:06:11;;;;;;;14.38;9.38;;;;;;;14.09;60.90;98509.88;1733240;82;21534;-60
2021/11/28 10:08:37;;;;;;;17.15;9.23;;;;;;;14.09;60.58;98510.69;1737782;80;21057;-61
2021/11/28 10:11:22;;;;;;;13.00;9.05;;;;;;;14.10;60.32;98510.16;1745262;82;21063;-63
2021/11/28 10:13:51;;;;;;;12.00;9.05;;;;;;;14.10;60.02;98502.15;1738985;81;21081;-61
2021/11/28 10:16:19;;;;;;;15.43;8.48;;;;;;;14.09;59.74;98491.99;1737281;81;21057;-62
2021/11/28 10:18:47;;;;;;;13.48;9.23;;;;;;;14.09;59.52;98491.99;1697510;82;21017;-61
2021/11/28 10:21:14;;;;;;;13.88;8.13;;;;;;;14.09;59.28;98488.52;1703227;82;21683;-65
2021/11/28 10:24:11;;;;;;;9.73;7.75;;;;;;;14.10;59.06;98483.45;1721564;82;23393;-62
2021/11/28 10:26:55;;;;;;;14.00;9.10;;;;;;;14.09;58.85;98489.32;1711060;82;21049;-63
2021/11/28 10:29:24;;;;;;;11.30;8.20;;;;;;;14.09;58.64;98487.18;1697964;82;21040;-62
2021/11/28 10:31:56;;;;;;;14.50;8.68;;;;;;;14.09;58.46;98495.19;1731304;82;21078;-60
2021/11/28 10:34:44;;;;;;;11.35;8.83;;;;;;;14.09;58.30;98503.20;1703657;82;21512;-61
2021/11/28 10:37:19;;;;;;;10.55;8.18;;;;;;;14.10;58.13;98498.14;1696365;82;21123;-62
2021/11/28 10:39:54;;;;;;;10.30;8.00;;;;;;;14.09;57.99;98497.86;1716991;82;21009;-60
2021/11/28 10:42:30;;;;;;;11.70;7.72;;;;;;;14.08;57.86;98497.05;1741054;82;21575;-61
2021/11/28 10:45:13;;;;;;;13.10;10.05;;;;;;;14.08;57.71;98492.20;1746726;82;21456;-63
2021/11/28 10:47:45;;;;;;;9.63;8.60;;;;;;;14.08;57.60;98493.54;1736638;81;21054;-64
2021/11/28 10:50:28;;;;;;;9.98;8.23;;;;;;;14.07;57.47;98490.06;1735978;81;21216;-65
2021/11/28 10:53:15;;;;;;;11.40;8.28;;;;;;;14.07;57.37;98489.25;1690330;82;21032;-64
2021/11/28 10:55:53;;;;;;;11.75;8.68;;;;;;;14.07;57.28;98483.91;1736547;82;21100;-64
2021/11/28 10:58:25;;;;;;;12.43;8.60;;;;;;;14.06;57.18;98479.09;1739808;82;21021;-65
2021/11/28 11:01:05;;;;;;;15.08;8.30;;;;;;;14.08;57.06;98476.19;1735579;81;21620;-62
2021/11/28 11:03:37;;;;;;;10.10;7.78;;;;;;;14.08;56.95;98472.17;1735476;81;21136;-63
2021/11/28 11:06:25;;;;;;;10.93;9.05;;;;;;;14.09;56.82;98457.80;1740768;82;21052;-63
2021/11/28 11:09:12;;;;;;;11.38;7.97;;;;;;;14.10;56.72;98461.59;1735092;82;21070;-63
2021/11/28 11:11:39;;;;;;;11.25;8.33;;;;;;;14.12;56.75;98464.05;1701939;82;21058;-62
2021/11/28 11:14:07;;;;;;;9.30;8.30;;;;;;;14.17;56.89;98464.17;1697947;82;21037;-61
2021/11/28 11:16:42;;;;;;;11.50;9.83;;;;;;;14.21;57.29;98464.02;1706028;82;21148;-62
2021/11/28 11:19:35;;;;;;;10.38;8.93;;;;;;;14.24;57.46;98458.25;1703588;82;21447;-62
2021/11/28 11:22:11;;;;;;;13.45;9.55;;;;;;;14.27;57.51;98466.33;1742328;82;21080;-62
2021/11/28 11:24:38;;;;;;;11.63;9.73;;;;;;;14.27;57.51;98463.13;1744641;81;21049;-61
2021/11/28 11:27:14;;;;;;;12.63;9.95;;;;;;;14.28;57.47;98461.30;1700634;82;21505;-61
2021/11/28 11:29:49;;;;;;;13.93;10.45;;;;;;;14.27;57.40;98457.78;1700734;82;21096;-64
2021/11/28 11:32:18;;;;;;;14.00;9.48;;;;;;;14.27;57.32;98459.13;1740934;81;21088;-62
2021/11/28 11:34:55;;;;;;;12.95;10.40;;;;;;;14.26;57.23;98459.37;1733699;81;21522;-61
2021/11/28 11:37:24;;;;;;;11.10;9.08;;;;;;;14.24;57.17;98460.92;1739013;82;21092;-62
2021/11/28 11:39:54;;;;;;;11.38;9.68;;;;;;;14.24;57.10;98470.80;1742469;81;21090;-63
2021/11/28 11:42:22;;;;;;;12.20;9.98;;;;;;;14.23;57.02;98466.48;1699766;82;21785;-62
2021/11/28 11:44:49;;;;;;;14.55;10.55;;;;;;;14.21;56.92;98464.02;1694498;82;21010;-62
2021/11/28 11:47:17;;;;;;;12.85;10.40;;;;;;;14.21;56.86;98462.69;1728566;81;22036;-63
2021/11/28 11:49:45;;;;;;;11.50;9.85;;;;;;;14.19;56.75;98458.62;1730901;82;21030;-61
2021/11/28 11:52:12;;;;;;;12.25;10.38;;;;;;;14.19;56.68;98459.42;1745158;82;21070;-62